Time;durP1;ratioP1;P1;durP2;ratioP2;P2;SDS_P1;SDS_P2;PMS_P1;PMS_P2;Temp;Humidity;BMP_temperature;BMP_pressure;BME280_temperature;BME280_humidity;BME280_pressure;Samples;Min_cycle;Max_cycle;Signal;HPM_P1;HPM_P2
2020/12/09 00:01:16;;;;;;;39.00;20.75;;;;;;;3.45;83.87;100424.59;5024922;28;20144;-74
2020/12/09 00:03:42;;;;;;;37.75;21.48;;;;;;;3.47;83.83;100417.75;5030243;28;20129;-74
2020/12/09 00:06:09;;;;;;;35.65;21.45;;;;;;;3.40;83.97;100418.56;5029404;28;20171;-75
2020/12/09 00:08:35;;;;;;;39.35;22.77;;;;;;;3.38;84.76;100425.44;5022960;28;20050;-74
2020/12/09 00:11:01;;;;;;;40.47;22.30;;;;;;;3.36;84.52;100422.84;5026262;28;20045;-74
2020/12/09 00:13:27;;;;;;;33.22;20.30;;;;;;;3.38;84.34;100423.72;5019055;28;20092;-73
2020/12/09 00:15:53;;;;;;;39.05;22.50;;;;;;;3.32;84.47;100426.25;5018415;28;21475;-75
2020/12/09 00:18:19;;;;;;;36.40;21.65;;;;;;;3.38;84.04;100431.41;5025574;28;20073;-75
2020/12/09 00:20:45;;;;;;;33.03;21.00;;;;;;;3.38;84.10;100431.41;5025927;28;20103;-74
2020/12/09 00:23:11;;;;;;;37.47;21.58;;;;;;;3.42;84.22;100432.28;5031086;28;20061;-74
2020/12/09 00:25:38;;;;;;;36.17;20.90;;;;;;;3.44;83.45;100427.19;5027208;28;20617;-75
2020/12/09 00:28:04;;;;;;;37.08;21.65;;;;;;;3.46;83.72;100423.75;5026872;28;20427;-75
2020/12/09 00:30:31;;;;;;;30.38;19.83;;;;;;;3.44;83.38;100428.03;5023096;28;20060;-73
2020/12/09 00:32:57;;;;;;;31.65;19.38;;;;;;;3.42;83.82;100428.03;5024668;28;20053;-76
2020/12/09 00:35:23;;;;;;;34.25;21.00;;;;;;;3.41;83.83;100426.31;5026975;28;20072;-73
2020/12/09 00:37:49;;;;;;;35.20;21.83;;;;;;;3.40;83.71;100428.84;5029939;28;20088;-73
2020/12/09 00:40:15;;;;;;;41.38;20.90;;;;;;;3.40;83.63;100427.16;5014593;28;20539;-73
2020/12/09 00:42:41;;;;;;;34.95;19.98;;;;;;;3.37;83.54;100434.84;5031010;28;20103;-74
2020/12/09 00:45:07;;;;;;;37.95;22.33;;;;;;;3.35;83.84;100436.53;5022611;28;20049;-73
2020/12/09 00:47:33;;;;;;;32.55;20.77;;;;;;;3.36;83.94;100435.69;5010995;28;20049;-73
2020/12/09 00:52:41;;;;;;;33.67;20.60;;;;;;;3.34;83.40;100434.84;5026729;28;20216;-72
2020/12/09 00:55:07;;;;;;;33.63;19.58;;;;;;;3.34;83.41;100439.09;5028488;28;20499;-72
2020/12/09 00:57:33;;;;;;;36.22;20.08;;;;;;;3.39;83.50;100442.56;5028589;28;20127;-72
2020/12/09 00:59:59;;;;;;;32.17;19.02;;;;;;;3.35;83.93;100443.41;5023933;28;20439;-73
2020/12/09 01:02:25;;;;;;;34.03;19.83;;;;;;;3.31;84.14;100441.66;5012515;28;20129;-73
2020/12/09 01:04:51;;;;;;;32.03;18.65;;;;;;;3.38;83.17;100446.00;5024168;28;20447;-74
2020/12/09 01:07:18;;;;;;;33.55;20.13;;;;;;;3.42;83.13;100445.16;5026694;28;20087;-73
2020/12/09 01:09:44;;;;;;;35.03;21.02;;;;;;;3.44;83.19;100458.88;5024119;28;20436;-74
2020/12/09 01:12:10;;;;;;;32.25;20.13;;;;;;;3.44;83.15;100452.88;5010413;28;20050;-72
2020/12/09 01:14:36;;;;;;;30.10;19.23;;;;;;;3.46;83.28;100451.16;5023964;28;20049;-73
2020/12/09 01:17:02;;;;;;;36.35;20.55;;;;;;;3.45;83.20;100449.44;5024386;28;20056;-73
2020/12/09 01:19:28;;;;;;;33.92;19.65;;;;;;;3.41;83.48;100453.72;5026884;28;20060;-74
2020/12/09 01:21:55;;;;;;;32.95;19.90;;;;;;;3.43;83.00;100459.72;5023272;28;20045;-73
2020/12/09 01:24:21;;;;;;;33.95;19.52;;;;;;;3.44;83.43;100458.88;5020369;28;20053;-73
2020/12/09 01:26:48;;;;;;;32.88;20.42;;;;;;;3.41;83.15;100464.88;5027893;28;20556;-73
2020/12/09 01:29:14;;;;;;;33.67;19.50;;;;;;;3.42;83.40;100464.03;5028812;28;20042;-73
2020/12/09 01:31:40;;;;;;;34.47;20.33;;;;;;;3.39;83.70;100466.56;5015890;28;20057;-73
2020/12/09 01:34:07;;;;;;;37.60;20.88;;;;;;;3.44;83.67;100474.31;5024050;28;20522;-73
2020/12/09 01:36:33;;;;;;;33.63;19.60;;;;;;;3.45;83.34;100470.00;5029415;28;20045;-72
2020/12/09 01:39:00;;;;;;;32.58;20.20;;;;;;;3.51;82.84;100470.06;5025853;28;20164;-73
2020/12/09 01:41:26;;;;;;;31.85;19.90;;;;;;;3.50;83.13;100466.59;5018552;28;20176;-73
2020/12/09 01:43:54;;;;;;;36.22;19.83;;;;;;;3.48;83.34;100470.03;5020278;28;20052;-73
2020/12/09 01:46:27;;;;;;;33.95;20.17;;;;;;;3.50;82.61;100466.59;5013913;28;20053;-73
2020/12/09 01:48:54;;;;;;;34.33;19.98;;;;;;;3.48;83.30;100468.34;5027856;28;20045;-74
2020/12/09 01:51:23;;;;;;;30.17;18.40;;;;;;;3.45;83.39;100473.47;5028884;28;20053;-73
2020/12/09 01:53:50;;;;;;;31.45;19.23;;;;;;;3.45;83.55;100477.72;5018284;28;20054;-74
2020/12/09 01:56:16;;;;;;;31.30;19.83;;;;;;;3.43;83.61;100472.56;5013929;28;20057;-73
2020/12/09 01:58:42;;;;;;;41.78;21.13;;;;;;;3.41;83.57;100472.59;5029634;28;20045;-73
2020/12/09 02:01:08;;;;;;;30.50;19.80;;;;;;;3.38;83.48;100475.13;5023550;28;20514;-73
2020/12/09 02:03:35;;;;;;;30.17;20.02;;;;;;;3.39;83.25;100469.13;5027075;28;20045;-70
2020/12/09 02:06:01;;;;;;;32.22;19.08;;;;;;;3.40;83.58;100477.69;5033898;28;20069;-72
2020/12/09 02:08:27;;;;;;;31.33;18.95;;;;;;;3.40;83.81;100477.69;5026813;28;20045;-73
2020/12/09 02:10:57;;;;;;;35.50;19.27;;;;;;;3.41;83.42;100482.88;5029726;28;20046;-73
2020/12/09 02:13:24;;;;;;;32.75;19.90;;;;;;;3.39;84.04;100487.13;5033613;28;20415;-73
2020/12/09 02:15:50;;;;;;;34.80;20.42;;;;;;;3.37;83.82;100496.53;5032894;28;20045;-73
2020/12/09 02:18:16;;;;;;;36.00;20.17;;;;;;;3.38;83.92;100498.25;5032965;28;20046;-73
2020/12/09 02:20:42;;;;;;;33.35;19.65;;;;;;;3.37;84.19;100503.41;5028770;28;20053;-73
2020/12/09 02:23:08;;;;;;;29.30;17.98;;;;;;;3.40;83.47;100498.25;5030933;28;20104;-72
2020/12/09 02:25:34;;;;;;;38.28;19.70;;;;;;;3.36;84.01;100491.41;5031852;28;20046;-69
2020/12/09 02:28:00;;;;;;;31.75;18.60;;;;;;;3.39;83.40;100497.41;5032055;28;20056;-73
2020/12/09 02:30:26;;;;;;;30.70;19.40;;;;;;;3.39;83.63;100494.84;5026239;28;20045;-73
2020/12/09 02:32:52;;;;;;;34.03;18.77;;;;;;;3.33;83.78;100497.38;5026313;28;20449;-72
2020/12/09 02:35:18;;;;;;;29.52;18.13;;;;;;;3.36;83.88;100499.97;5031056;28;20465;-73
2020/12/09 02:37:44;;;;;;;28.30;18.20;;;;;;;3.40;83.83;100498.25;5031810;28;20041;-74
2020/12/09 02:40:11;;;;;;;33.17;19.95;;;;;;;3.42;83.50;100502.59;5035594;28;20061;-73
2020/12/09 02:42:37;;;;;;;30.17;17.85;;;;;;;3.44;83.58;100501.75;5031884;28;20052;-73
2020/12/09 02:45:03;;;;;;;32.05;19.27;;;;;;;3.38;83.97;100495.69;5028173;28;20491;-73
2020/12/09 02:47:29;;;;;;;32.85;19.13;;;;;;;3.36;84.24;100489.69;5026137;28;20465;-73
2020/12/09 02:49:55;;;;;;;31.15;19.40;;;;;;;3.39;84.04;100497.41;5024900;28;20053;-73
2020/12/09 02:52:21;;;;;;;29.20;19.13;;;;;;;3.43;83.67;100493.16;5053792;23;20072;-67
2020/12/09 02:54:47;;;;;;;31.90;19.70;;;;;;;3.36;83.78;100493.97;5056548;28;20041;-68
2020/12/09 02:57:14;;;;;;;36.97;20.15;;;;;;;3.30;84.40;100493.91;5069184;28;20053;-68
2020/12/09 02:59:40;;;;;;;30.98;19.20;;;;;;;3.35;84.47;100500.81;5071665;28;20044;-68
2020/12/09 03:02:06;;;;;;;33.45;19.60;;;;;;;3.35;84.22;100495.66;5063371;28;20055;-68
2020/12/09 03:04:32;;;;;;;30.70;18.20;;;;;;;3.38;84.44;100505.13;5053769;28;20048;-68
2020/12/09 03:06:58;;;;;;;31.95;19.60;;;;;;;3.37;84.37;100501.69;5066805;28;20052;-68
2020/12/09 03:09:24;;;;;;;33.00;19.55;;;;;;;3.42;84.06;100506.84;5070809;28;20048;-68
2020/12/09 03:11:50;;;;;;;35.38;19.02;;;;;;;3.46;84.18;100505.16;5071534;28;20049;-68
2020/12/09 03:14:17;;;;;;;30.35;19.90;;;;;;;3.44;84.16;100507.72;5070703;28;20059;-68
2020/12/09 03:16:43;;;;;;;31.27;19.17;;;;;;;3.42;83.83;100509.41;5071043;28;20452;-68
2020/12/09 03:19:09;;;;;;;33.55;20.30;;;;;;;3.46;84.06;100515.44;5072269;28;20062;-68
2020/12/09 03:21:35;;;;;;;34.20;19.52;;;;;;;3.45;84.20;100513.72;5054450;28;20056;-68
2020/12/09 03:24:01;;;;;;;30.83;19.05;;;;;;;3.42;83.50;100515.44;5060580;28;20052;-68
2020/12/09 03:26:26;;;;;;;32.97;18.83;;;;;;;3.44;83.72;100518.00;5068486;28;20567;-68
2020/12/09 03:28:53;;;;;;;29.25;18.13;;;;;;;3.39;83.90;100512.00;5068049;28;20048;-68
2020/12/09 03:31:20;;;;;;;36.45;21.17;;;;;;;3.36;84.05;100509.41;5058566;28;20056;-65
2020/12/09 03:33:46;;;;;;;33.97;20.50;;;;;;;3.29;84.21;100505.06;5072169;28;20053;-67
2020/12/09 03:36:12;;;;;;;33.95;19.67;;;;;;;3.22;84.70;100504.16;5070886;28;20145;-67
2020/12/09 03:38:38;;;;;;;36.97;22.25;;;;;;;3.24;84.75;100515.31;5069515;28;20131;-67
2020/12/09 03:41:04;;;;;;;32.30;20.10;;;;;;;3.30;84.27;100504.19;5070198;28;20044;-68
2020/12/09 03:43:30;;;;;;;34.30;19.63;;;;;;;3.23;84.67;100514.44;5072733;28;20052;-66
2020/12/09 03:45:56;;;;;;;35.30;20.98;;;;;;;3.22;84.59;100514.44;5066271;28;20075;-67
2020/12/09 03:48:23;;;;;;;31.48;19.73;;;;;;;3.22;84.26;100517.00;5069898;28;20052;-66
2020/12/09 03:50:48;;;;;;;34.38;20.23;;;;;;;3.20;84.33;100511.00;5071974;28;20048;-66
2020/12/09 03:53:15;;;;;;;33.80;21.58;;;;;;;3.20;84.46;100511.84;5063910;28;20052;-67
2020/12/09 03:55:41;;;;;;;30.90;18.95;;;;;;;3.20;84.26;100516.13;5061807;28;20502;-67
2020/12/09 03:58:07;;;;;;;32.90;19.95;;;;;;;3.20;84.85;100513.56;5066802;28;20101;-66
2020/12/09 04:00:33;;;;;;;33.53;19.42;;;;;;;3.21;84.20;100517.84;5065213;28;20040;-66
2020/12/09 04:02:59;;;;;;;44.65;20.35;;;;;;;3.15;84.71;100522.94;5069434;28;20044;-66
2020/12/09 04:05:26;;;;;;;30.67;18.95;;;;;;;3.16;84.85;100522.09;5072591;28;20052;-67
2020/12/09 04:07:52;;;;;;;35.17;19.13;;;;;;;3.11;84.84;100525.50;5065807;28;20040;-66
2020/12/09 04:10:18;;;;;;;32.28;19.45;;;;;;;3.18;84.53;100530.69;5065695;28;20059;-66
2020/12/09 04:12:44;;;;;;;29.73;19.27;;;;;;;3.16;84.42;100533.25;5068374;28;20528;-66
2020/12/09 04:15:10;;;;;;;29.77;17.98;;;;;;;3.13;84.79;100534.94;5073493;28;20060;-66
2020/12/09 04:17:36;;;;;;;33.30;18.70;;;;;;;3.19;84.26;100532.41;5070413;28;20052;-66
2020/12/09 04:20:03;;;;;;;30.55;18.80;;;;;;;3.20;84.21;100532.41;5073918;28;20098;-67
2020/12/09 04:22:30;;;;;;;32.38;19.13;;;;;;;3.16;84.48;100540.06;5057783;28;20049;-66
2020/12/09 04:24:56;;;;;;;29.20;18.00;;;;;;;3.14;84.75;100536.66;5065978;28;20045;-67
2020/12/09 04:27:22;;;;;;;29.05;17.88;;;;;;;3.18;84.54;100538.38;5064561;28;20463;-67
2020/12/09 04:29:48;;;;;;;33.05;19.10;;;;;;;3.18;84.75;100538.38;5065363;28;20045;-67
2020/12/09 04:32:14;;;;;;;34.00;19.50;;;;;;;3.19;84.66;100546.13;5063218;28;20075;-67
2020/12/09 04:34:40;;;;;;;32.33;19.67;;;;;;;3.18;84.68;100546.09;5071361;28;20524;-67
2020/12/09 04:37:08;;;;;;;34.90;20.75;;;;;;;3.11;84.38;100540.91;5064953;28;20072;-67
2020/12/09 04:39:35;;;;;;;32.17;18.75;;;;;;;3.20;84.26;100546.97;5065799;28;20052;-67
2020/12/09 04:42:01;;;;;;;32.35;19.83;;;;;;;3.17;84.49;100547.81;5063356;28;20524;-67
2020/12/09 04:44:27;;;;;;;32.72;19.08;;;;;;;3.16;84.47;100553.81;5064387;28;20131;-67
2020/12/09 04:46:53;;;;;;;34.65;20.55;;;;;;;3.17;84.36;100557.22;5066960;28;20495;-68
2020/12/09 04:49:22;;;;;;;34.42;22.23;;;;;;;3.19;83.66;100558.97;5068395;28;20040;-67
2020/12/09 04:52:25;;;;;;;34.70;20.33;;;;;;;3.14;83.81;100552.94;5072234;28;20048;-67
2020/12/09 04:55:03;;;;;;;36.45;20.30;;;;;;;3.17;83.50;100555.53;5064460;28;20052;-67
2020/12/09 04:58:02;;;;;;;37.78;21.33;;;;;;;3.05;83.42;100558.84;5062431;28;20052;-67
2020/12/09 05:00:29;;;;;;;34.67;21.13;;;;;;;3.01;84.12;100554.53;5059671;28;20041;-68
2020/12/09 05:03:13;;;;;;;33.63;21.17;;;;;;;2.97;83.90;100554.50;5061635;28;20048;-67
2020/12/09 05:05:39;;;;;;;39.38;21.95;;;;;;;2.99;84.08;100553.66;5066696;28;20089;-67
2020/12/09 05:08:10;;;;;;;33.53;20.52;;;;;;;3.00;83.61;100557.94;5074951;28;20048;-68
2020/12/09 05:10:45;;;;;;;36.55;20.90;;;;;;;2.91;83.61;100552.72;5066425;28;20354;-68
2020/12/09 05:13:19;;;;;;;35.28;20.85;;;;;;;2.89;83.49;100557.88;5065922;28;20411;-67
2020/12/09 05:15:47;;;;;;;36.40;21.25;;;;;;;2.89;82.91;100557.88;5062722;28;20753;-67
2020/12/09 05:18:17;;;;;;;39.75;21.85;;;;;;;2.86;83.20;100556.94;5069982;28;20049;-67
2020/12/09 05:20:42;;;;;;;37.47;21.73;;;;;;;2.84;83.04;100562.09;5068538;28;20049;-67
2020/12/09 05:23:10;;;;;;;33.50;21.48;;;;;;;2.79;82.96;100566.31;5065977;28;20048;-67
2020/12/09 05:25:38;;;;;;;35.05;21.42;;;;;;;2.82;82.32;100566.34;5059825;28;20407;-67
2020/12/09 05:28:05;;;;;;;41.40;23.95;;;;;;;2.74;82.24;100570.53;5067726;28;20553;-67
2020/12/09 05:30:42;;;;;;;41.20;24.20;;;;;;;2.66;82.55;100570.44;5058115;28;20060;-67
2020/12/09 05:33:10;;;;;;;42.60;22.77;;;;;;;2.61;82.91;100572.97;5064620;28;20052;-67
2020/12/09 05:35:37;;;;;;;44.65;25.10;;;;;;;2.59;82.65;100577.25;5065049;28;20056;-67
2020/12/09 05:38:10;;;;;;;39.22;23.55;;;;;;;2.63;82.36;100573.00;5067192;28;20044;-67
2020/12/09 05:40:41;;;;;;;42.72;23.25;;;;;;;2.58;82.96;100582.34;5074687;28;20520;-67
2020/12/09 05:43:07;;;;;;;45.95;24.48;;;;;;;2.53;82.61;100576.31;5069496;28;20057;-67
2020/12/09 05:45:33;;;;;;;42.45;24.73;;;;;;;2.49;82.81;100576.28;5067549;28;20048;-67
2020/12/09 05:48:17;;;;;;;45.03;26.88;;;;;;;2.48;82.67;100582.25;5072150;28;20056;-66
2020/12/09 05:50:49;;;;;;;44.63;26.92;;;;;;;2.46;82.47;100586.50;5074301;28;20053;-66
2020/12/09 05:53:19;;;;;;;46.13;26.75;;;;;;;2.44;82.77;100588.22;5073213;28;20045;-67
2020/12/09 05:55:46;;;;;;;48.15;27.42;;;;;;;2.42;82.88;100595.03;5070743;28;20533;-67
2020/12/09 05:58:23;;;;;;;54.65;28.17;;;;;;;2.39;82.65;100589.00;5071480;28;20040;-68
2020/12/09 06:01:08;;;;;;;59.58;31.27;;;;;;;2.29;83.01;100593.16;5064127;28;20049;-67
2020/12/09 06:03:35;;;;;;;65.97;34.75;;;;;;;2.23;83.44;100601.63;5066918;28;20585;-67
2020/12/09 06:06:09;;;;;;;66.80;33.65;;;;;;;2.25;83.53;100602.50;5069037;28;20494;-67
2020/12/09 06:08:41;;;;;;;67.85;34.10;;;;;;;2.25;83.55;100609.34;5072875;28;20045;-67
2020/12/09 06:11:08;;;;;;;67.13;33.30;;;;;;;2.21;83.36;100610.16;5059154;28;20532;-67
2020/12/09 06:13:34;;;;;;;68.85;36.10;;;;;;;2.28;82.72;100622.22;5072413;28;20052;-67
2020/12/09 06:16:02;;;;;;;65.20;35.83;;;;;;;2.18;83.60;100622.09;5065675;28;20048;-67
2020/12/09 06:18:30;;;;;;;74.72;37.40;;;;;;;2.17;83.21;100617.81;5072869;28;20049;-67
2020/12/09 06:20:56;;;;;;;72.40;35.70;;;;;;;2.17;83.57;100619.53;5072693;28;20045;-67
2020/12/09 06:23:22;;;;;;;72.30;36.70;;;;;;;2.07;84.07;100621.09;5064734;28;20155;-67
2020/12/09 06:25:48;;;;;;;72.75;36.20;;;;;;;2.04;84.45;100620.19;5058002;28;20499;-67
2020/12/09 06:28:17;;;;;;;73.20;34.45;;;;;;;1.96;84.12;100618.38;5070322;28;20106;-68
2020/12/09 06:30:44;;;;;;;68.55;33.63;;;;;;;1.93;84.27;100622.59;5067964;28;20497;-67
2020/12/09 06:33:10;;;;;;;66.93;33.30;;;;;;;1.97;83.81;100614.09;5070659;28;20048;-67
2020/12/09 06:35:36;;;;;;;69.90;36.20;;;;;;;1.95;83.24;100616.66;5069530;28;20053;-67
2020/12/09 06:38:18;;;;;;;73.47;35.38;;;;;;;1.85;83.96;100625.06;5071055;28;20048;-67
2020/12/09 06:41:10;;;;;;;63.97;32.38;;;;;;;1.84;84.41;100613.94;5073288;28;20048;-67
2020/12/09 06:43:38;;;;;;;66.85;33.38;;;;;;;1.82;84.15;100620.75;5073386;28;20759;-67
2020/12/09 06:46:04;;;;;;;66.68;33.33;;;;;;;1.88;83.62;100613.97;5058845;28;20076;-67
2020/12/09 06:48:38;;;;;;;67.45;32.47;;;;;;;1.85;83.37;100615.66;5064855;28;20052;-67
2020/12/09 06:51:35;;;;;;;65.30;32.15;;;;;;;1.85;83.47;100625.91;5070803;28;20139;-67
2020/12/09 06:54:14;;;;;;;72.65;32.72;;;;;;;1.82;83.39;100631.00;5057233;28;20052;-67
2020/12/09 06:56:40;;;;;;;60.42;31.48;;;;;;;1.84;83.38;100634.47;5066080;28;20079;-67
2020/12/09 06:59:26;;;;;;;59.67;32.90;;;;;;;1.80;83.71;100642.06;5070357;28;20044;-67
2020/12/09 07:02:03;;;;;;;61.20;32.97;;;;;;;1.81;83.83;100647.22;5064171;28;20056;-67
2020/12/09 07:05:04;;;;;;;70.85;35.00;;;;;;;1.79;83.70;100643.78;5071859;28;20052;-67
2020/12/09 07:07:32;;;;;;;71.20;33.95;;;;;;;1.79;83.48;100646.34;5068751;28;20466;-67
2020/12/09 07:09:59;;;;;;;64.35;31.30;;;;;;;1.82;83.95;100650.66;5064112;28;20099;-67
2020/12/09 07:12:26;;;;;;;74.25;34.17;;;;;;;1.81;84.14;100654.94;5066837;28;20421;-67
2020/12/09 07:14:55;;;;;;;67.85;33.90;;;;;;;1.85;83.50;100656.69;5062614;28;20131;-67
2020/12/09 07:17:24;;;;;;;62.35;33.20;;;;;;;1.83;82.67;100662.63;5062729;28;20319;-67
2020/12/09 07:19:50;;;;;;;61.63;32.28;;;;;;;1.79;82.81;100660.88;5073048;28;20051;-67
2020/12/09 07:22:17;;;;;;;62.63;34.13;;;;;;;1.86;82.72;100657.56;5069843;28;20049;-67
2020/12/09 07:24:43;;;;;;;61.22;32.15;;;;;;;1.77;82.93;100665.97;5062065;28;20174;-67
2020/12/09 07:27:10;;;;;;;62.85;32.78;;;;;;;1.70;82.78;100666.72;5054316;28;20041;-67
2020/12/09 07:29:38;;;;;;;59.28;30.55;;;;;;;1.68;83.24;100673.50;5056864;28;20214;-67
2020/12/09 07:32:05;;;;;;;67.95;34.28;;;;;;;1.60;83.61;100667.41;5057137;28;20044;-67
2020/12/09 07:34:31;;;;;;;65.60;34.00;;;;;;;1.57;83.78;100675.91;5060699;28;20496;-67
2020/12/09 07:36:57;;;;;;;59.78;32.13;;;;;;;1.60;83.29;100675.09;5061816;28;20185;-67
2020/12/09 07:39:28;;;;;;;59.47;31.15;;;;;;;1.61;83.06;100672.53;5060405;28;20064;-68
2020/12/09 07:41:56;;;;;;;60.28;31.10;;;;;;;1.64;82.35;100676.88;5058643;28;20125;-67
2020/12/09 07:44:22;;;;;;;61.70;33.20;;;;;;;1.62;82.78;100668.28;5058871;28;20071;-67
2020/12/09 07:46:53;;;;;;;62.55;32.55;;;;;;;1.61;82.45;100672.53;5060355;28;20045;-67
2020/12/09 07:49:20;;;;;;;57.92;30.52;;;;;;;1.53;82.69;100674.13;5060148;28;20047;-67
2020/12/09 07:51:46;;;;;;;61.00;31.63;;;;;;;1.49;82.35;100674.94;5057306;28;20056;-67
2020/12/09 07:54:14;;;;;;;60.45;30.73;;;;;;;1.50;83.23;100676.63;5055079;28;20938;-67
2020/12/09 07:56:40;;;;;;;60.22;31.95;;;;;;;1.53;82.99;100684.38;5059102;28;20102;-67
2020/12/09 07:59:05;;;;;;;64.00;33.95;;;;;;;1.54;82.25;100689.56;5056797;28;20044;-68
2020/12/09 08:01:31;;;;;;;62.65;32.17;;;;;;;1.53;82.63;100684.38;5058085;28;20067;-66
2020/12/09 08:03:57;;;;;;;61.38;30.85;;;;;;;1.50;83.09;100689.44;5057458;28;20468;-67
2020/12/09 08:06:24;;;;;;;61.17;32.25;;;;;;;1.53;82.68;100695.50;5055524;28;20119;-67
2020/12/09 08:08:51;;;;;;;60.80;33.13;;;;;;;1.56;82.61;100687.00;5057072;28;20040;-67
2020/12/09 08:11:17;;;;;;;67.18;34.58;;;;;;;1.54;82.14;100688.66;5060021;28;20645;-67
2020/12/09 08:13:43;;;;;;;63.40;33.38;;;;;;;1.50;82.34;100687.75;5057612;28;20045;-67
2020/12/09 08:16:11;;;;;;;64.25;33.10;;;;;;;1.48;82.69;100686.88;5059301;28;20454;-67
2020/12/09 08:18:38;;;;;;;66.65;32.67;;;;;;;1.54;82.51;100686.09;5059606;28;20044;-67
2020/12/09 08:21:04;;;;;;;63.30;32.97;;;;;;;1.57;82.29;100685.28;5063555;28;20048;-67
2020/12/09 08:23:42;;;;;;;59.15;31.08;;;;;;;1.61;82.46;100679.38;5060540;28;20146;-67
2020/12/09 08:26:09;;;;;;;57.63;30.25;;;;;;;1.62;82.05;100683.69;5058709;28;20052;-68
2020/12/09 08:28:36;;;;;;;62.63;32.67;;;;;;;1.62;81.64;100683.69;5058039;28;20041;-67
2020/12/09 08:31:13;;;;;;;59.47;32.13;;;;;;;1.58;81.14;100671.63;5059369;28;20052;-68
2020/12/09 08:33:39;;;;;;;61.60;32.63;;;;;;;1.62;81.41;100673.44;5058236;28;20055;-67
2020/12/09 08:36:08;;;;;;;60.35;33.08;;;;;;;1.68;81.10;100674.38;5059411;28;20063;-68
2020/12/09 08:38:37;;;;;;;64.97;33.85;;;;;;;1.70;81.21;100669.28;5062748;28;20053;-67
2020/12/09 08:41:06;;;;;;;64.22;32.50;;;;;;;1.66;81.27;100665.81;5058399;28;20516;-68
2020/12/09 08:43:34;;;;;;;62.97;31.92;;;;;;;1.65;80.75;100666.63;5060230;28;20061;-67
2020/12/09 08:46:02;;;;;;;68.40;35.13;;;;;;;1.62;82.21;100663.16;5062872;28;20051;-68
2020/12/09 08:48:28;;;;;;;60.47;32.05;;;;;;;1.62;82.53;100663.16;5058015;28;20056;-67
2020/12/09 08:50:54;;;;;;;59.45;32.35;;;;;;;1.66;81.70;100664.94;5059599;28;20052;-67
2020/12/09 08:53:21;;;;;;;67.80;33.67;;;;;;;1.71;82.05;100671.00;5064108;22;20493;-71
2020/12/09 08:55:47;;;;;;;61.92;32.92;;;;;;;1.69;82.46;100680.38;5038211;28;20045;-72
2020/12/09 08:58:15;;;;;;;62.58;33.42;;;;;;;1.75;81.53;100680.47;5048047;28;20056;-74
2020/12/09 09:00:42;;;;;;;63.72;33.40;;;;;;;1.75;81.85;100685.59;5045095;28;20056;-73
2020/12/09 09:03:12;;;;;;;66.97;32.72;;;;;;;1.67;80.61;100679.47;5040108;28;20521;-73
2020/12/09 09:05:40;;;;;;;66.57;32.65;;;;;;;1.53;81.00;100675.00;5047520;28;20072;-72
2020/12/09 09:08:06;;;;;;;60.20;32.55;;;;;;;1.54;81.18;100686.09;5048555;28;20498;-72
2020/12/09 09:10:32;;;;;;;70.35;34.83;;;;;;;1.47;82.07;100689.41;5048075;28;20056;-73
2020/12/09 09:12:58;;;;;;;63.38;33.30;;;;;;;1.54;82.30;100697.25;5048871;28;20053;-73
2020/12/09 09:15:25;;;;;;;61.63;31.95;;;;;;;1.64;82.38;100702.53;5034767;28;20087;-70
2020/12/09 09:17:50;;;;;;;62.63;32.58;;;;;;;1.73;82.22;100709.47;5048056;28;20465;-73
2020/12/09 09:20:17;;;;;;;62.17;32.88;;;;;;;1.82;81.90;100713.06;5044759;28;20045;-73
2020/12/09 09:22:43;;;;;;;58.78;30.52;;;;;;;1.80;81.69;100714.75;5045749;28;20085;-74
2020/12/09 09:25:10;;;;;;;62.45;33.58;;;;;;;1.89;81.54;100724.31;5055751;28;20049;-71
2020/12/09 09:27:36;;;;;;;66.47;32.38;;;;;;;1.94;81.33;100717.53;5053075;28;20072;-73
2020/12/09 09:30:03;;;;;;;62.47;32.63;;;;;;;2.00;81.17;100714.19;5058244;28;20064;-74
2020/12/09 09:32:30;;;;;;;63.00;35.15;;;;;;;2.04;81.08;100708.28;5049290;28;20146;-73
2020/12/09 09:34:56;;;;;;;61.10;31.75;;;;;;;2.16;81.01;100710.16;5050397;28;20056;-72
2020/12/09 09:37:22;;;;;;;64.30;33.95;;;;;;;2.25;80.27;100715.44;5045280;28;20175;-71
2020/12/09 09:39:50;;;;;;;58.80;32.92;;;;;;;2.27;79.83;100711.19;5043558;28;20049;-73
2020/12/09 09:42:17;;;;;;;66.68;34.63;;;;;;;2.31;79.79;100714.66;5049649;28;20049;-73
2020/12/09 09:44:43;;;;;;;67.45;36.38;;;;;;;2.34;80.00;100717.28;5046151;28;20045;-73
2020/12/09 09:47:09;;;;;;;67.68;36.97;;;;;;;2.41;78.64;100718.22;5042296;28;20064;-73
2020/12/09 09:49:36;;;;;;;63.10;34.00;;;;;;;2.43;79.00;100709.72;5044283;28;20049;-73
2020/12/09 09:52:02;;;;;;;62.80;33.97;;;;;;;2.46;78.56;100707.16;5044325;28;20099;-73
2020/12/09 09:54:28;;;;;;;63.00;36.17;;;;;;;2.39;78.84;100710.50;5044015;28;20060;-72
2020/12/09 09:56:54;;;;;;;61.25;34.45;;;;;;;2.48;78.67;100710.63;5038626;28;20045;-72
2020/12/09 09:59:20;;;;;;;66.35;35.38;;;;;;;2.48;78.43;100708.06;5044532;28;20055;-73
2020/12/09 10:01:46;;;;;;;62.05;34.83;;;;;;;2.56;77.98;100708.16;5042582;28;20128;-72
2020/12/09 10:04:12;;;;;;;59.08;33.55;;;;;;;2.60;78.77;100709.91;5045463;28;20159;-74
2020/12/09 10:06:38;;;;;;;59.05;33.50;;;;;;;2.60;77.95;100712.47;5043851;28;20086;-74
2020/12/09 10:09:06;;;;;;;65.68;36.45;;;;;;;2.64;77.99;100715.97;5061407;28;20409;-72
2020/12/09 10:11:35;;;;;;;58.63;34.50;;;;;;;2.65;77.86;100722.81;5050388;28;20123;-73
2020/12/09 10:14:01;;;;;;;56.55;32.67;;;;;;;2.73;77.60;100723.78;5049849;28;20053;-71
2020/12/09 10:16:28;;;;;;;57.63;33.53;;;;;;;2.77;77.51;100733.25;5032347;28;20821;-74
2020/12/09 10:18:54;;;;;;;59.85;34.20;;;;;;;2.76;77.46;100738.38;5030079;28;20049;-73
2020/12/09 10:21:24;;;;;;;65.10;36.00;;;;;;;2.66;77.56;100739.09;5049650;28;20410;-71
2020/12/09 10:23:51;;;;;;;57.50;33.65;;;;;;;2.58;78.07;100732.16;5029629;28;20079;-73
2020/12/09 10:26:17;;;;;;;58.90;34.50;;;;;;;2.58;77.97;100727.03;5050335;28;20468;-73
2020/12/09 10:28:43;;;;;;;59.38;34.28;;;;;;;2.70;77.57;100728.88;5053492;28;20491;-73
2020/12/09 10:31:09;;;;;;;61.85;33.58;;;;;;;2.71;77.64;100724.59;5046970;28;20052;-72
2020/12/09 10:33:35;;;;;;;61.90;35.25;;;;;;;2.75;77.62;100727.22;5044453;28;20049;-72
2020/12/09 10:36:01;;;;;;;57.15;32.30;;;;;;;2.83;77.22;100726.47;5035972;28;20418;-73
2020/12/09 10:38:27;;;;;;;58.30;32.92;;;;;;;2.80;77.74;100728.16;5047606;28;20119;-73
2020/12/09 10:40:54;;;;;;;56.75;31.70;;;;;;;2.86;77.44;100729.94;5050244;28;20068;-73
2020/12/09 10:43:20;;;;;;;55.72;32.72;;;;;;;2.83;77.23;100731.63;5046597;28;20049;-73
2020/12/09 10:45:46;;;;;;;62.45;32.67;;;;;;;2.82;77.31;100729.88;5046778;28;20138;-73
2020/12/09 10:48:12;;;;;;;59.97;33.33;;;;;;;2.89;77.46;100719.72;5042511;28;20491;-73
2020/12/09 10:50:38;;;;;;;55.58;31.73;;;;;;;3.02;77.17;100720.72;5049070;28;20055;-73
2020/12/09 10:53:04;;;;;;;55.90;32.28;;;;;;;3.06;76.88;100714.75;5037451;28;20152;-74
2020/12/09 10:55:31;;;;;;;56.65;32.58;;;;;;;3.08;76.28;100720.78;5040828;28;20128;-73
2020/12/09 10:57:58;;;;;;;56.28;32.70;;;;;;;3.10;77.26;100716.50;5043819;28;20586;-71
2020/12/09 11:00:24;;;;;;;58.20;32.35;;;;;;;3.20;76.68;100711.47;5043328;28;20073;-74
2020/12/09 11:02:50;;;;;;;57.63;30.85;;;;;;;3.21;76.73;100705.50;5046248;28;20079;-72
2020/12/09 11:05:15;;;;;;;53.50;30.20;;;;;;;3.36;76.08;100713.34;5049639;28;20045;-72
2020/12/09 11:07:41;;;;;;;55.80;33.05;;;;;;;3.28;76.33;100697.00;5050693;28;20102;-73
2020/12/09 11:10:07;;;;;;;50.70;29.77;;;;;;;3.30;76.01;100692.72;5041262;28;20049;-73
2020/12/09 11:12:33;;;;;;;51.83;31.45;;;;;;;3.31;75.92;100688.44;5036866;28;20616;-73
2020/12/09 11:15:00;;;;;;;59.97;33.60;;;;;;;3.26;77.67;100689.28;5044488;28;20056;-73
2020/12/09 11:17:26;;;;;;;57.10;31.45;;;;;;;3.36;75.56;100687.63;5050462;28;20506;-71
2020/12/09 11:19:52;;;;;;;56.83;33.05;;;;;;;3.34;76.01;100694.50;5049048;28;20048;-73
2020/12/09 11:22:18;;;;;;;54.17;32.30;;;;;;;3.30;75.43;100697.00;5046277;28;20472;-74